createdAt,value
2022-08-23T00:00:19.884Z,0
2022-08-23T00:27:07.055Z,0
2022-08-23T00:30:07.079Z,0
2022-08-23T00:33:07.054Z,0
2022-08-23T00:36:07.035Z,0
2022-08-23T00:39:07.117Z,0
2022-08-23T00:42:07.097Z,0
2022-08-23T00:45:07.081Z,0
2022-08-23T00:48:07.521Z,0
2022-08-23T00:51:07.065Z,0
2022-08-23T00:54:07.090Z,0
2022-08-23T00:57:07.107Z,0
2022-08-23T01:00:07.097Z,0
2022-08-23T01:03:11.658Z,0
2022-08-23T01:06:07.050Z,0
2022-08-23T01:09:07.026Z,0
2022-08-23T01:12:07.117Z,0
2022-08-23T01:15:07.070Z,0
2022-08-23T01:18:07.479Z,0
2022-08-23T01:21:15.269Z,0
2022-08-23T01:24:07.052Z,0
2022-08-23T01:27:07.083Z,0
2022-08-23T01:30:07.093Z,0
2022-08-23T01:33:07.175Z,0
2022-08-23T01:36:14.203Z,0
2022-08-23T01:39:07.098Z,0
2022-08-23T01:42:13.817Z,0
2022-08-23T01:45:07.090Z,0
2022-08-23T01:48:07.672Z,0
2022-08-23T01:51:07.101Z,0
2022-08-23T01:54:07.043Z,0
2022-08-23T01:57:07.100Z,0
2022-08-23T02:00:07.062Z,0
2022-08-23T02:03:07.508Z,0
2022-08-23T02:06:07.008Z,0
2022-08-23T02:09:19.435Z,0
2022-08-23T02:12:07.042Z,0
2022-08-23T02:15:07.160Z,0
2022-08-23T02:18:07.520Z,0
2022-08-23T02:24:09.063Z,0
2022-08-23T02:27:09.310Z,0
2022-08-23T02:30:10.799Z,0
2022-08-23T02:33:10.833Z,0
2022-08-23T02:36:07.144Z,0
2022-08-23T02:39:07.122Z,0
2022-08-23T02:42:07.074Z,0
2022-08-23T02:45:07.064Z,0
2022-08-23T02:48:07.464Z,0
2022-08-23T02:51:07.061Z,0
2022-08-23T02:54:07.094Z,0
2022-08-23T02:57:07.052Z,0
2022-08-23T03:00:07.624Z,0
2022-08-23T03:03:07.016Z,0
2022-08-23T03:06:32.510Z,0
2022-08-23T03:09:07.052Z,0
2022-08-23T03:12:07.097Z,0
2022-08-23T03:15:07.931Z,0
2022-08-23T03:18:07.444Z,0
2022-08-23T03:21:07.061Z,0
2022-08-23T03:24:12.719Z,0
2022-08-23T03:27:07.274Z,0
2022-08-23T03:30:14.547Z,0
2022-08-23T03:33:07.025Z,0
2022-08-23T03:36:07.084Z,0
2022-08-23T03:39:07.031Z,3
2022-08-23T03:42:07.089Z,3
2022-08-23T03:45:09.403Z,7
2022-08-23T03:48:07.411Z,10
2022-08-23T03:51:07.027Z,13
2022-08-23T03:54:07.003Z,23
2022-08-23T03:57:07.140Z,37
2022-08-23T04:00:07.168Z,57
2022-08-23T04:03:07.055Z,83
2022-08-23T04:06:07.737Z,117
2022-08-23T04:09:07.053Z,160
2022-08-23T04:12:19.765Z,217
2022-08-23T04:15:09.303Z,290
2022-08-23T04:18:09.335Z,377
2022-08-23T04:21:07.085Z,477
2022-08-23T04:24:07.086Z,603
2022-08-23T04:27:07.047Z,740
2022-08-23T04:30:10.509Z,870
2022-08-23T04:33:21.347Z,1050
2022-08-23T04:36:07.086Z,1207
2022-08-23T04:39:07.086Z,1347
2022-08-23T04:42:07.162Z,1487
2022-08-23T04:45:07.312Z,1637
2022-08-23T04:48:10.499Z,1770
2022-08-23T04:51:07.133Z,1897
2022-08-23T04:54:07.042Z,2013
2022-08-23T04:57:07.073Z,2130
2022-08-23T05:00:07.152Z,2227
2022-08-23T05:03:07.094Z,2333
2022-08-23T05:06:07.113Z,2433
2022-08-23T05:09:07.075Z,2533
2022-08-23T05:12:07.191Z,2627
2022-08-23T05:15:07.097Z,2727
2022-08-23T05:18:07.590Z,2817
2022-08-23T05:21:07.037Z,2903
2022-08-23T05:24:15.927Z,2987
2022-08-23T05:27:09.583Z,3070
2022-08-23T05:30:07.228Z,3140
2022-08-23T05:33:11.118Z,3227
2022-08-23T05:36:07.134Z,3343
2022-08-23T05:39:07.162Z,3610
2022-08-23T05:42:07.171Z,5023
2022-08-23T05:45:12.872Z,6223
2022-08-23T05:48:07.725Z,6550
2022-08-23T05:51:07.113Z,6887
2022-08-23T05:54:07.163Z,7253
2022-08-23T05:57:07.118Z,7627
2022-08-23T06:00:07.391Z,7953
2022-08-23T06:03:07.075Z,8313
2022-08-23T06:06:07.122Z,8707
2022-08-23T06:09:07.094Z,9030
2022-08-23T06:12:07.124Z,9390
2022-08-23T06:15:07.095Z,9690
2022-08-23T06:18:07.613Z,9957
2022-08-23T06:21:07.065Z,10250
2022-08-23T06:24:07.037Z,10583
2022-08-23T06:27:07.177Z,10897
2022-08-23T06:30:07.170Z,11173
2022-08-23T06:33:07.077Z,11433
2022-08-23T06:36:07.022Z,11647
2022-08-23T06:39:07.191Z,11870
2022-08-23T06:42:38.893Z,12090
2022-08-23T06:45:07.233Z,12367
2022-08-23T06:48:07.746Z,12583
2022-08-23T06:51:10.534Z,12813
2022-08-23T06:54:11.228Z,13137
2022-08-23T06:57:07.087Z,13463
2022-08-23T07:00:07.169Z,13817
2022-08-23T07:03:08.266Z,14210
2022-08-23T07:06:07.052Z,14663
2022-08-23T07:09:07.050Z,15077
2022-08-23T07:12:07.004Z,15543
2022-08-23T07:15:07.562Z,15863
2022-08-23T07:18:07.327Z,16147
2022-08-23T07:21:07.091Z,16363
2022-08-23T07:24:07.100Z,16537
2022-08-23T07:27:07.337Z,16733
2022-08-23T07:30:07.104Z,16947
2022-08-23T07:33:11.748Z,17183
2022-08-23T07:36:07.704Z,17583
2022-08-23T07:39:07.080Z,18120
2022-08-23T07:42:27.631Z,18860
2022-08-23T07:45:09.973Z,19743
2022-08-23T07:48:07.599Z,20733
2022-08-23T07:51:09.392Z,22173
2022-08-23T07:54:07.097Z,23907
2022-08-23T07:57:07.880Z,25943
2022-08-23T08:00:07.211Z,28000
2022-08-23T08:03:07.629Z,30253
2022-08-23T08:06:07.122Z,32900
2022-08-23T08:09:07.148Z,35380
2022-08-23T08:12:07.129Z,37793
2022-08-23T08:15:07.096Z,39913
2022-08-23T08:18:09.762Z,42600
2022-08-23T08:21:07.080Z,44730
2022-08-23T08:24:07.171Z,46990
2022-08-23T08:27:07.890Z,48843
2022-08-23T08:30:07.162Z,50777
2022-08-23T08:33:08.045Z,52417
2022-08-23T08:36:11.916Z,53807
2022-08-23T08:39:08.640Z,55250
2022-08-23T08:42:11.657Z,56090
2022-08-23T08:45:08.927Z,57227
2022-08-23T08:48:10.187Z,58250
2022-08-23T08:51:07.113Z,59110
2022-08-23T08:54:07.188Z,59517
2022-08-23T08:57:07.170Z,60667
2022-08-23T09:00:07.172Z,60953
2022-08-23T09:03:07.394Z,61710
2022-08-23T09:06:07.099Z,62387
2022-08-23T09:09:07.064Z,62893
2022-08-23T09:12:07.074Z,63797
2022-08-23T09:15:07.183Z,64570
2022-08-23T09:18:07.734Z,65180
2022-08-23T09:21:07.199Z,65590
2022-08-23T09:24:07.942Z,66227
2022-08-23T09:27:07.082Z,66063
2022-08-23T09:30:07.255Z,67063
2022-08-23T09:33:07.870Z,67427
2022-08-23T09:36:08.383Z,67287
2022-08-23T09:39:07.028Z,68060
2022-08-23T09:42:07.097Z,68163
2022-08-23T09:45:07.064Z,69100
2022-08-23T09:48:07.613Z,68627
2022-08-23T09:51:07.084Z,69237
2022-08-23T09:54:07.097Z,69577
2022-08-23T09:57:07.128Z,70053
2022-08-23T10:00:07.168Z,70583
2022-08-23T10:03:07.682Z,70633
2022-08-23T10:06:07.080Z,70673
2022-08-23T10:09:07.145Z,71063
2022-08-23T10:12:12.507Z,70590
2022-08-23T10:15:09.073Z,70927
2022-08-23T10:18:08.125Z,71080
2022-08-23T10:21:07.116Z,71243
2022-08-23T10:24:07.092Z,71520
2022-08-23T10:27:07.110Z,71843
2022-08-23T10:30:07.124Z,71480
2022-08-23T10:33:07.080Z,71423
2022-08-23T10:36:07.168Z,71670
2022-08-23T10:39:07.080Z,71950
2022-08-23T10:42:07.107Z,72207
2022-08-23T10:45:07.116Z,71610
2022-08-23T10:48:07.622Z,71840
2022-08-23T10:51:07.119Z,72357
2022-08-23T10:54:07.138Z,72087
2022-08-23T10:57:07.055Z,72117
2022-08-23T11:00:07.136Z,71877
2022-08-23T11:03:07.500Z,71740
2022-08-23T11:06:07.313Z,72300
2022-08-23T11:09:07.068Z,71980
2022-08-23T11:15:07.108Z,72060
2022-08-23T11:24:07.128Z,71813
2022-08-23T11:27:13.345Z,71663
2022-08-23T11:30:07.175Z,71360
2022-08-23T11:33:10.436Z,71490
2022-08-23T11:36:07.086Z,71463
2022-08-23T11:39:07.090Z,71647
2022-08-23T11:42:07.089Z,71430
2022-08-23T11:45:07.193Z,71483
2022-08-23T11:48:07.406Z,71233
2022-08-23T11:51:07.136Z,71227
2022-08-23T11:54:07.106Z,71230
2022-08-23T11:57:07.058Z,71063
2022-08-23T12:00:07.238Z,70973
2022-08-23T12:03:08.024Z,70830
2022-08-23T12:06:07.068Z,70897
2022-08-23T12:09:08.381Z,70260
2022-08-23T12:12:08.840Z,69897
2022-08-23T12:15:07.178Z,69627
2022-08-23T12:18:08.048Z,69353
2022-08-23T12:21:07.101Z,68883
2022-08-23T12:24:07.989Z,68737
2022-08-23T12:27:07.099Z,68083
2022-08-23T12:30:07.274Z,67400
2022-08-23T12:33:07.114Z,66917
2022-08-23T12:36:18.570Z,66740
2022-08-23T12:39:07.174Z,66360
2022-08-23T12:42:09.095Z,66047
2022-08-23T12:45:07.454Z,65600
2022-08-23T12:48:07.124Z,65103
2022-08-23T12:51:07.141Z,64383
2022-08-23T12:54:07.193Z,63910
2022-08-23T12:57:07.104Z,63790
2022-08-23T13:00:24.755Z,63197
2022-08-23T13:03:09.000Z,63237
2022-08-23T13:06:12.769Z,62553
2022-08-23T13:09:07.096Z,61850
2022-08-23T13:12:07.139Z,61277
2022-08-23T13:15:07.370Z,60343
2022-08-23T13:18:07.889Z,59717
2022-08-23T13:21:07.175Z,59347
2022-08-23T13:24:07.533Z,59440
2022-08-23T13:27:07.196Z,58697
2022-08-23T13:30:07.290Z,58343
2022-08-23T13:33:13.729Z,57857
2022-08-23T13:36:15.407Z,55707
2022-08-23T13:39:07.059Z,57227
2022-08-23T13:42:07.178Z,53607
2022-08-23T13:45:07.139Z,55337
2022-08-23T13:48:07.144Z,54503
2022-08-23T13:51:07.078Z,54797
2022-08-23T13:54:07.228Z,49710
2022-08-23T13:57:07.103Z,53017
2022-08-23T14:00:07.334Z,53113
2022-08-23T14:03:07.800Z,47867
2022-08-23T14:06:07.057Z,49500
2022-08-23T14:09:07.365Z,51163
2022-08-23T14:12:15.583Z,50870
2022-08-23T14:15:07.123Z,50133
2022-08-23T14:18:07.106Z,46720
2022-08-23T14:21:07.094Z,46920
2022-08-23T14:24:07.071Z,47663
2022-08-23T14:27:07.327Z,47487
2022-08-23T14:30:07.271Z,46420
2022-08-23T14:33:08.596Z,44963
2022-08-23T14:36:07.100Z,45720
2022-08-23T14:39:07.197Z,45387
2022-08-23T14:42:07.099Z,44417
2022-08-23T14:45:07.085Z,42887
2022-08-23T14:48:08.816Z,43007
2022-08-23T14:51:07.108Z,42517
2022-08-23T14:54:07.315Z,41990
2022-08-23T14:57:07.109Z,41130
2022-08-23T15:00:07.342Z,40797
2022-08-23T15:03:13.475Z,39147
2022-08-23T15:06:07.083Z,39667
2022-08-23T15:09:07.086Z,38653
2022-08-23T15:15:07.480Z,37210
2022-08-23T15:18:07.841Z,36343
2022-08-23T15:21:07.084Z,36060
2022-08-23T15:24:07.103Z,35717
2022-08-23T15:27:07.085Z,34827
2022-08-23T15:30:07.169Z,34493
2022-08-23T15:33:12.270Z,33820
2022-08-23T15:36:07.795Z,32847
2022-08-23T15:39:07.056Z,32227
2022-08-23T15:42:07.110Z,29167
2022-08-23T15:45:07.147Z,30180
2022-08-23T15:48:07.124Z,30370
2022-08-23T15:51:07.105Z,29737
2022-08-23T15:54:07.127Z,29267
2022-08-23T15:57:07.070Z,26000
2022-08-23T16:00:07.180Z,25660
2022-08-23T16:03:28.103Z,27000
2022-08-23T16:06:07.181Z,24997
2022-08-23T16:09:07.154Z,24787
2022-08-23T16:12:07.166Z,22347
2022-08-23T16:15:07.165Z,24750
2022-08-23T16:18:07.104Z,23897
2022-08-23T16:21:07.069Z,23153
2022-08-23T16:24:07.110Z,22097
2022-08-23T16:27:07.054Z,21730
2022-08-23T16:30:07.312Z,21570
2022-08-23T16:33:07.662Z,21067
2022-08-23T16:36:07.117Z,19873
2022-08-23T16:39:07.111Z,17277
2022-08-23T16:42:07.122Z,13427
2022-08-23T16:45:07.055Z,12220
2022-08-23T16:48:07.391Z,12753
2022-08-23T16:51:07.140Z,14383
2022-08-23T16:54:09.868Z,15723
2022-08-23T16:57:07.100Z,15467
2022-08-23T17:00:09.157Z,14467
2022-08-23T17:03:08.104Z,13057
2022-08-23T17:06:07.062Z,12917
2022-08-23T17:09:07.151Z,12333
2022-08-23T17:12:07.111Z,4407
2022-08-23T17:15:07.044Z,3997
2022-08-23T17:18:07.074Z,3760
2022-08-23T17:21:07.148Z,3680
2022-08-23T17:24:07.121Z,3603
2022-08-23T17:27:07.064Z,3467
2022-08-23T17:30:10.420Z,3320
2022-08-23T17:33:07.572Z,3153
2022-08-23T17:36:07.155Z,2990
2022-08-23T17:39:07.095Z,2837
2022-08-23T17:42:07.089Z,2683
2022-08-23T17:45:07.104Z,2517
2022-08-23T17:48:07.088Z,2343
2022-08-23T17:51:07.037Z,2157
2022-08-23T17:54:07.123Z,1973
2022-08-23T17:57:09.100Z,1793
2022-08-23T18:00:07.226Z,1617
2022-08-23T18:03:07.912Z,1437
2022-08-23T18:06:21.215Z,1263
2022-08-23T18:09:07.099Z,1087
2022-08-23T18:12:07.124Z,913
2022-08-23T18:15:07.114Z,737
2022-08-23T18:18:07.136Z,593
2022-08-23T18:21:07.127Z,457
2022-08-23T18:24:07.088Z,350
2022-08-23T18:27:08.191Z,257
2022-08-23T18:30:07.181Z,193
2022-08-23T18:33:07.877Z,140
2022-08-23T18:36:07.062Z,100
2022-08-23T18:39:07.290Z,67
2022-08-23T18:42:07.030Z,43
2022-08-23T18:45:07.063Z,30
2022-08-23T18:48:07.044Z,20
2022-08-23T18:51:07.085Z,10
2022-08-23T18:54:07.099Z,7
2022-08-23T18:57:07.075Z,3
2022-08-23T19:00:07.105Z,3
2022-08-23T19:03:07.503Z,3
2022-08-23T19:06:07.043Z,0
2022-08-23T19:09:07.042Z,0
2022-08-23T19:12:07.156Z,0
2022-08-23T19:15:07.154Z,0
2022-08-23T19:18:07.059Z,0
2022-08-23T19:21:07.040Z,0
2022-08-23T19:24:07.061Z,0
2022-08-23T19:27:07.145Z,0
2022-08-23T19:30:09.811Z,0
2022-08-23T19:33:07.537Z,0
2022-08-23T19:36:07.108Z,0
2022-08-23T19:39:07.131Z,0
2022-08-23T19:42:11.957Z,0
2022-08-23T19:45:07.094Z,0
2022-08-23T19:48:07.046Z,0
2022-08-23T19:51:07.045Z,0
2022-08-23T19:54:13.921Z,0
2022-08-23T19:57:07.092Z,0
2022-08-23T20:00:07.228Z,0
2022-08-23T20:03:07.665Z,0
2022-08-23T20:06:07.047Z,0
2022-08-23T20:09:07.104Z,0
2022-08-23T20:12:07.031Z,0
2022-08-23T20:15:07.190Z,0
2022-08-23T20:18:07.045Z,0
2022-08-23T20:21:07.096Z,0
2022-08-23T20:24:07.048Z,0
2022-08-23T20:27:07.081Z,0
2022-08-23T20:30:07.075Z,0
2022-08-23T20:33:07.287Z,0
2022-08-23T20:36:07.056Z,0
2022-08-23T20:39:07.159Z,0
2022-08-23T20:42:10.066Z,0
2022-08-23T20:45:07.209Z,0
2022-08-23T20:48:10.695Z,0
2022-08-23T20:51:07.041Z,0
2022-08-23T20:54:07.152Z,0
2022-08-23T20:57:07.242Z,0
2022-08-23T21:00:07.104Z,0
2022-08-23T21:03:07.560Z,0
2022-08-23T21:06:08.044Z,0
2022-08-23T21:09:07.100Z,0
2022-08-23T21:12:07.094Z,0
2022-08-23T21:15:11.288Z,0
2022-08-23T21:18:07.148Z,0
2022-08-23T21:21:07.112Z,0
2022-08-23T21:24:07.065Z,0
2022-08-23T21:27:13.790Z,0
2022-08-23T21:30:07.079Z,0
2022-08-23T21:33:07.459Z,0
2022-08-23T21:36:07.091Z,0
2022-08-23T21:39:07.049Z,0
2022-08-23T21:42:23.981Z,0
2022-08-23T21:45:09.293Z,0
2022-08-23T21:48:07.915Z,0
2022-08-23T21:51:07.071Z,0
2022-08-23T21:54:07.091Z,0
2022-08-23T21:57:07.063Z,0
2022-08-23T22:00:07.515Z,0
2022-08-23T22:03:08.446Z,0
2022-08-23T22:06:07.064Z,0
2022-08-23T22:09:07.043Z,0
2022-08-23T22:12:08.443Z,0
2022-08-23T22:15:07.068Z,0
2022-08-23T22:18:07.062Z,0
2022-08-23T22:21:07.023Z,0
2022-08-23T22:24:07.037Z,0
2022-08-23T22:27:07.124Z,0
2022-08-23T22:30:07.110Z,0
2022-08-23T22:33:07.438Z,0
2022-08-23T22:36:07.025Z,0
2022-08-23T22:39:07.111Z,0
2022-08-23T22:42:11.550Z,0
2022-08-23T22:45:07.137Z,0
2022-08-23T22:48:07.692Z,0
2022-08-23T22:51:07.080Z,0
2022-08-23T22:54:07.014Z,0
2022-08-23T22:57:07.035Z,0
2022-08-23T23:00:11.870Z,0
2022-08-23T23:03:08.508Z,0
2022-08-23T23:06:07.215Z,0
2022-08-23T23:09:07.049Z,0
2022-08-23T23:12:07.061Z,0
2022-08-23T23:15:07.042Z,0
2022-08-23T23:18:07.337Z,0
2022-08-23T23:21:07.021Z,0
2022-08-23T23:24:07.022Z,0
2022-08-23T23:27:07.092Z,0
2022-08-23T23:30:07.058Z,0
2022-08-23T23:33:07.048Z,0
2022-08-23T23:36:07.057Z,0
2022-08-23T23:39:07.064Z,0
2022-08-23T23:42:07.052Z,0
2022-08-23T23:45:07.082Z,0
2022-08-23T23:48:12.856Z,0
2022-08-23T23:51:07.059Z,0
2022-08-23T23:54:16.799Z,0
2022-08-23T23:57:07.123Z,0
